Weather at Doha International Airport

Public forecast

Using degrees Celsius for public forecast. Weather courtesy of forecast.io.

Current aviation weather report (METAR) for Doha International Airport

2024/07/17 12:30 (retrieved 35 minutes ago)

OTBD 171230Z 01009KT CAVOK 40/23 Q0996 NOSIG

Aviation forecast (TAF) for Doha International Airport

2024/07/17 12:03 (retrieved 1 hour ago)

TAF OTBD 171117Z 1712/1818 04009KT CAVOK BECMG 1716/1718 34005KT TEMPO 1719/1804 26005KT